createdAt,value
2022-08-09T09:26:46.707Z,2.73
2022-08-09T09:32:03.271Z,2.70
2022-08-09T09:36:22.033Z,2.80
2022-08-09T09:41:25.916Z,2.15
2022-08-09T09:51:18.740Z,2.43
2022-08-09T09:55:48.839Z,2.92
2022-08-09T10:10:18.621Z,2.35
2022-08-09T10:15:50.760Z,2.30
2022-08-09T10:20:15.243Z,2.90
2022-08-09T10:24:54.370Z,2.17
2022-08-09T10:30:43.909Z,2.88
2022-08-09T10:35:30.788Z,2.70
2022-08-09T10:40:34.984Z,3.00
2022-08-09T10:45:18.165Z,2.90
2022-08-09T11:09:50.918Z,2.42
2022-08-09T11:13:53.755Z,2.60
2022-08-09T11:19:09.282Z,2.58
2022-08-09T11:23:23.890Z,3.10
2022-08-09T11:28:08.126Z,2.70
2022-08-09T11:33:21.266Z,2.10
2022-08-09T11:37:41.057Z,2.42
2022-08-09T11:41:49.682Z,3.30
2022-08-09T11:46:03.006Z,2.30
2022-08-09T11:50:55.103Z,2.00
2022-08-09T11:54:42.160Z,2.03
2022-08-09T11:59:12.914Z,2.70
2022-08-09T12:03:55.540Z,2.50
2022-08-09T12:12:28.701Z,2.20
2022-08-09T12:16:42.931Z,2.40
2022-08-09T12:20:46.490Z,2.13
2022-08-09T12:24:51.670Z,2.72
2022-08-09T12:29:12.643Z,2.40
2022-08-09T12:33:50.858Z,2.42
2022-08-09T12:37:55.686Z,2.25
2022-08-09T12:42:17.125Z,2.58
2022-08-09T12:46:20.812Z,2.47
2022-08-09T12:50:25.131Z,2.22
2022-08-09T12:54:28.135Z,2.33
2022-08-09T12:58:34.741Z,2.95
2022-08-09T13:03:09.955Z,2.17
2022-08-09T13:07:28.461Z,2.13
2022-08-09T13:12:02.129Z,2.63
2022-08-09T13:16:08.424Z,2.72
2022-08-09T13:20:16.312Z,2.10
2022-08-09T13:24:53.650Z,2.00
2022-08-09T13:29:07.997Z,2.08
2022-08-09T13:33:17.333Z,2.50
2022-08-09T13:37:24.769Z,2.85
2022-08-09T13:42:00.471Z,2.67
2022-08-09T13:47:16.477Z,2.53
2022-08-09T13:50:31.798Z,2.00
2022-08-09T13:54:34.498Z,2.53
2022-08-09T13:58:37.287Z,1.95
2022-08-09T14:03:02.789Z,1.63
2022-08-09T14:07:06.524Z,1.95
2022-08-09T14:11:16.093Z,1.98
2022-08-09T14:16:10.574Z,1.73
2022-08-09T14:19:43.257Z,2.05
2022-08-09T14:23:55.389Z,2.17
2022-08-09T14:27:59.100Z,2.28
2022-08-09T14:32:10.829Z,2.10
2022-08-09T14:36:19.817Z,2.35
2022-08-09T14:41:01.443Z,1.95
2022-08-09T14:44:59.412Z,2.25
2022-08-09T14:49:03.443Z,2.30
2022-08-09T14:53:11.664Z,2.40
2022-08-09T14:57:14.851Z,2.55
2022-08-09T15:01:20.625Z,2.00
2022-08-09T15:05:22.704Z,1.80
2022-08-09T15:10:03.388Z,2.40
2022-08-09T15:14:04.118Z,1.90
2022-08-09T15:18:14.360Z,1.70
2022-08-09T15:22:17.484Z,1.90
2022-08-09T15:26:31.155Z,2.38
2022-08-09T15:30:59.159Z,2.15
2022-08-09T15:35:02.123Z,1.92
2022-08-09T15:39:21.950Z,1.92
2022-08-09T15:43:24.815Z,2.10
2022-08-09T15:47:51.453Z,1.65
2022-08-09T15:52:02.829Z,2.03
2022-08-09T15:56:26.998Z,1.60
2022-08-09T16:00:32.112Z,2.20
2022-08-09T16:04:34.862Z,1.90
2022-08-09T16:08:44.398Z,2.20
2022-08-09T16:12:53.530Z,1.95
2022-08-09T16:17:00.243Z,2.08
2022-08-09T16:21:02.623Z,2.20
2022-08-09T16:25:12.900Z,2.38
2022-08-09T16:29:22.339Z,2.42
2022-08-09T16:33:46.324Z,2.08
2022-08-09T16:37:55.045Z,2.42
2022-08-09T16:42:05.063Z,1.73
2022-08-09T16:46:08.003Z,2.35
2022-08-09T16:50:31.927Z,1.88
2022-08-09T16:54:41.479Z,1.80
2022-08-09T16:58:50.452Z,1.88
2022-08-09T17:02:52.899Z,2.17
2022-08-09T17:08:41.092Z,2.17
2022-08-09T17:11:24.629Z,1.88
2022-08-09T17:15:58.887Z,2.00
2022-08-09T17:20:30.241Z,2.55
2022-08-09T17:24:30.205Z,1.67
2022-08-09T17:28:38.722Z,2.15
2022-08-09T17:32:45.515Z,1.80
2022-08-09T17:36:53.627Z,2.20
2022-08-09T17:40:56.002Z,2.08
2022-08-09T17:44:59.501Z,1.98
2022-08-09T17:49:03.741Z,2.05
2022-08-09T17:53:19.307Z,1.73
2022-08-09T17:58:03.103Z,2.10
2022-08-09T18:02:06.573Z,2.00
2022-08-09T18:06:14.832Z,2.03
2022-08-09T18:10:34.088Z,2.40
2022-08-09T18:14:49.749Z,2.20
2022-08-09T18:19:03.784Z,1.50
2022-08-09T18:24:12.845Z,1.90
2022-08-09T18:30:34.948Z,1.63
2022-08-09T18:32:42.239Z,1.90
2022-08-09T18:36:53.180Z,1.95
2022-08-09T18:40:55.898Z,2.00
2022-08-09T18:45:02.987Z,1.73
2022-08-09T18:49:14.388Z,1.73
2022-08-09T18:53:16.776Z,1.52
2022-08-09T18:57:19.136Z,2.10
2022-08-09T19:01:21.655Z,1.95
2022-08-09T19:06:01.886Z,1.80
2022-08-09T19:10:14.044Z,2.15
2022-08-09T19:14:16.104Z,2.03
2022-08-09T19:18:42.286Z,1.92
2022-08-09T19:22:50.325Z,1.98
2022-08-09T19:26:56.633Z,2.00
2022-08-09T19:31:00.952Z,1.70
2022-08-09T19:35:03.441Z,1.73
2022-08-09T19:39:05.837Z,2.00
2022-08-09T19:43:10.352Z,1.77
2022-08-09T19:47:45.596Z,3.15
2022-08-09T19:51:55.205Z,1.80
2022-08-09T19:56:05.851Z,1.38
2022-08-09T20:00:10.115Z,1.65
2022-08-09T20:04:22.091Z,1.38
2022-08-09T20:08:35.308Z,1.70
2022-08-09T20:12:45.995Z,1.50
2022-08-09T20:16:54.296Z,1.15
2022-08-09T20:20:58.217Z,1.35
2022-08-09T20:25:00.815Z,2.20
2022-08-09T20:29:10.283Z,1.63
2022-08-09T20:33:21.322Z,1.73
2022-08-09T20:41:34.813Z,1.70
2022-08-09T20:45:59.103Z,1.25
2022-08-09T20:50:08.984Z,1.55
2022-08-09T20:54:18.438Z,1.65
2022-08-09T20:58:21.236Z,2.30
2022-08-09T21:02:24.691Z,1.73
2022-08-09T21:06:27.079Z,1.30
2022-08-09T21:10:33.766Z,1.27
2022-08-09T21:14:41.645Z,1.80
2022-08-09T21:20:04.271Z,1.50
2022-08-09T21:23:10.847Z,2.20
2022-08-09T21:27:51.743Z,1.65
2022-08-09T21:31:48.054Z,1.20
2022-08-09T21:35:52.933Z,1.50
2022-08-09T21:39:57.534Z,1.55
2022-08-09T21:44:00.650Z,1.80
2022-08-09T21:48:02.813Z,1.38
2022-08-09T21:52:17.840Z,1.33
2022-08-09T21:56:34.036Z,1.77
2022-08-09T22:00:48.791Z,1.67
2022-08-09T22:04:57.978Z,1.48
2022-08-09T22:09:12.671Z,1.58
2022-08-09T22:13:20.267Z,1.70
2022-08-09T22:17:31.903Z,1.40
2022-08-09T22:21:45.205Z,2.35
2022-08-09T22:26:08.690Z,1.40
2022-08-09T22:30:15.177Z,1.35
2022-08-09T22:34:29.344Z,1.30
2022-08-09T22:38:39.180Z,1.52
2022-08-09T22:42:46.478Z,1.50
2022-08-09T22:48:13.939Z,1.35
2022-08-09T22:51:17.882Z,1.52
2022-08-09T22:56:06.553Z,1.33
2022-08-09T22:59:58.224Z,1.40
2022-08-09T23:04:07.377Z,1.40
2022-08-09T23:08:33.249Z,1.73
2022-08-09T23:12:42.816Z,1.73
2022-08-09T23:16:48.150Z,1.33
2022-08-09T23:20:51.050Z,1.55
2022-08-09T23:24:53.425Z,1.77
2022-08-09T23:32:59.922Z,1.50
2022-08-09T23:37:03.154Z,1.65
2022-08-09T23:41:09.217Z,1.80
2022-08-09T23:45:36.877Z,1.83
2022-08-09T23:49:42.602Z,1.80
2022-08-09T23:53:50.629Z,1.60
2022-08-09T23:58:10.407Z,1.52
